createdAt,value
2019-04-26T00:00:19.354Z,32.67
2019-04-26T00:02:53.118Z,38.33
2019-04-26T00:05:33.970Z,30.80
2019-04-26T00:07:57.888Z,33.38
2019-04-26T00:10:33.484Z,31.50
2019-04-26T00:13:09.921Z,31.57
2019-04-26T00:15:54.870Z,32.98
2019-04-26T00:18:26.744Z,28.40
2019-04-26T00:20:59.408Z,33.63
2019-04-26T00:23:30.905Z,31.55
2019-04-26T00:26:01.985Z,28.27
2019-04-26T00:28:32.910Z,27.67
2019-04-26T00:31:03.878Z,30.05
2019-04-26T00:33:36.584Z,31.05
2019-04-26T00:36:07.489Z,34.58
2019-04-26T00:38:38.418Z,38.15
2019-04-26T00:41:09.921Z,34.03
2019-04-26T00:43:41.469Z,37.55
2019-04-26T00:46:14.667Z,34.85
2019-04-26T00:48:46.094Z,28.15
2019-04-26T00:51:17.898Z,36.45
2019-04-26T00:53:49.804Z,31.12
2019-04-26T00:56:22.227Z,37.38
2019-04-26T00:58:53.617Z,34.38
2019-04-26T01:01:26.458Z,33.25
2019-04-26T01:03:57.441Z,38.50
2019-04-26T01:06:29.987Z,32.85
2019-04-26T01:09:00.902Z,30.20
2019-04-26T01:11:31.809Z,29.40
2019-04-26T01:14:02.735Z,28.00
2019-04-26T01:16:34.502Z,33.53
2019-04-26T01:19:09.682Z,30.35
2019-04-26T01:21:43.493Z,29.82
2019-04-26T01:24:18.245Z,30.48
2019-04-26T01:26:51.539Z,33.20
2019-04-26T01:29:23.744Z,37.08
2019-04-26T01:32:09.533Z,31.68
2019-04-26T01:34:42.236Z,29.92
2019-04-26T01:37:13.644Z,30.57
2019-04-26T01:39:49.126Z,31.95
2019-04-26T01:42:30.723Z,31.97
2019-04-26T01:45:21.769Z,30.92
2019-04-26T01:47:55.623Z,38.55
2019-04-26T01:50:29.424Z,35.08
2019-04-26T01:53:02.478Z,30.17
2019-04-26T01:55:33.625Z,33.28
2019-04-26T01:58:06.402Z,28.38
2019-04-26T02:00:48.049Z,37.13
2019-04-26T02:03:26.360Z,34.53
2019-04-26T02:05:57.500Z,32.70
2019-04-26T02:08:28.399Z,35.13
2019-04-26T02:11:00.184Z,30.80
2019-04-26T02:13:31.093Z,34.78
2019-04-26T02:16:02.023Z,33.20
2019-04-26T02:18:33.606Z,35.88
2019-04-26T02:21:22.080Z,29.90
2019-04-26T02:24:04.822Z,35.73
2019-04-26T02:26:43.156Z,33.18
2019-04-26T02:29:17.047Z,31.75
2019-04-26T02:31:53.552Z,30.48
2019-04-26T02:34:26.072Z,30.27
2019-04-26T02:37:01.344Z,35.48
2019-04-26T02:39:37.800Z,32.38
2019-04-26T02:42:28.757Z,30.17
2019-04-26T02:45:22.228Z,34.85
2019-04-26T02:48:14.294Z,35.55
2019-04-26T02:50:49.738Z,29.70
2019-04-26T02:53:33.684Z,32.95
2019-04-26T02:56:29.532Z,34.08
2019-04-26T02:59:03.150Z,28.30
2019-04-26T03:01:36.264Z,27.95
2019-04-26T03:04:06.784Z,29.90
2019-04-26T03:06:41.142Z,28.85
2019-04-26T03:09:16.547Z,32.93
2019-04-26T03:11:56.315Z,34.55
2019-04-26T03:14:29.073Z,31.25
2019-04-26T03:17:16.354Z,26.27
2019-04-26T03:20:03.413Z,30.17
2019-04-26T03:22:46.284Z,32.53
2019-04-26T03:25:23.876Z,37.33
2019-04-26T03:28:22.028Z,35.13
2019-04-26T03:31:12.146Z,40.40
2019-04-26T03:34:02.572Z,37.78
2019-04-26T03:37:00.695Z,39.90
2019-04-26T03:39:51.057Z,38.60
2019-04-26T03:42:27.661Z,38.63
2019-04-26T03:45:18.124Z,36.38
2019-04-26T03:48:00.707Z,38.67
2019-04-26T03:50:44.884Z,36.63
2019-04-26T03:53:30.391Z,37.88
2019-04-26T03:56:20.705Z,36.93
2019-04-26T03:59:09.050Z,41.53
2019-04-26T04:01:59.421Z,35.85
2019-04-26T04:04:36.956Z,33.23
2019-04-26T04:07:10.405Z,35.88
2019-04-26T04:09:44.869Z,35.05
2019-04-26T04:12:24.595Z,34.43
2019-04-26T04:15:07.654Z,26.65
2019-04-26T04:17:45.469Z,38.23
2019-04-26T04:20:35.156Z,35.10
2019-04-26T04:23:08.971Z,42.70
2019-04-26T04:25:49.198Z,43.45
2019-04-26T04:28:53.019Z,37.23
2019-04-26T04:31:40.520Z,47.33
2019-04-26T04:34:30.364Z,43.48
2019-04-26T04:37:04.220Z,39.70
2019-04-26T04:40:04.873Z,36.58
2019-04-26T04:42:52.464Z,35.43
2019-04-26T04:45:46.277Z,34.58
2019-04-26T04:48:24.685Z,31.27
2019-04-26T04:51:34.863Z,34.55
2019-04-26T04:54:23.766Z,29.65
2019-04-26T04:56:57.648Z,33.65
2019-04-26T04:59:52.431Z,29.90
2019-04-26T05:02:33.737Z,33.40
2019-04-26T05:05:12.146Z,36.68
2019-04-26T05:08:07.224Z,34.10
2019-04-26T05:10:54.122Z,33.75
2019-04-26T05:13:47.933Z,35.38
2019-04-26T05:16:41.417Z,32.63
2019-04-26T05:19:32.507Z,29.77
2019-04-26T05:22:25.502Z,30.12
2019-04-26T05:25:49.354Z,29.57
2019-04-26T05:28:30.656Z,37.55
2019-04-26T05:31:30.063Z,35.75
2019-04-26T05:34:17.663Z,35.15
2019-04-26T05:37:00.487Z,32.33
2019-04-26T05:39:40.571Z,27.32
2019-04-26T05:42:16.020Z,36.00
2019-04-26T05:45:21.740Z,33.45
2019-04-26T05:48:31.961Z,29.02
2019-04-26T05:51:33.449Z,31.30
2019-04-26T05:54:42.178Z,24.70
2019-04-26T05:57:39.946Z,29.25
2019-04-26T06:00:27.426Z,29.37
2019-04-26T06:03:20.806Z,30.62
2019-04-26T06:05:56.503Z,36.63
2019-04-26T06:08:40.753Z,33.28
2019-04-26T06:11:18.934Z,32.15
2019-04-26T06:14:04.148Z,33.40
2019-04-26T06:17:15.033Z,37.05
2019-04-26T06:19:59.791Z,33.95
2019-04-26T06:22:36.427Z,33.90
2019-04-26T06:25:33.666Z,33.30
2019-04-26T06:28:10.196Z,36.33
2019-04-26T06:30:47.577Z,35.73
2019-04-26T06:33:24.120Z,38.65
2019-04-26T06:35:59.343Z,30.12
2019-04-26T06:38:59.880Z,33.45
2019-04-26T06:42:09.494Z,31.05
2019-04-26T06:45:30.078Z,34.10
2019-04-26T06:48:12.345Z,28.12
2019-04-26T06:51:02.840Z,25.97
2019-04-26T06:53:48.172Z,33.02
2019-04-26T06:56:38.823Z,28.23
2019-04-26T06:59:17.276Z,31.15
2019-04-26T07:01:51.247Z,27.35
2019-04-26T07:04:31.642Z,25.08
2019-04-26T07:07:25.071Z,22.17
2019-04-26T07:10:02.633Z,32.00
2019-04-26T07:12:52.769Z,23.42
2019-04-26T07:15:41.800Z,26.55
2019-04-26T07:18:32.374Z,24.18
2019-04-26T07:21:17.625Z,28.05
2019-04-26T07:24:26.291Z,24.35
2019-04-26T07:27:19.376Z,24.52
2019-04-26T07:30:12.116Z,24.85
2019-04-26T07:32:49.098Z,24.12
2019-04-26T07:35:25.698Z,23.95
2019-04-26T07:38:09.004Z,26.48
2019-04-26T07:41:34.349Z,26.55
2019-04-26T07:44:21.486Z,22.40
2019-04-26T07:46:55.297Z,23.67
2019-04-26T07:49:35.156Z,19.12
2019-04-26T07:52:17.811Z,24.67
2019-04-26T07:55:20.748Z,24.75
2019-04-26T07:58:19.688Z,23.83
2019-04-26T08:01:04.064Z,22.82
2019-04-26T08:03:44.995Z,23.75
2019-04-26T08:06:21.507Z,26.97
2019-04-26T08:09:00.548Z,24.00
2019-04-26T08:11:50.442Z,18.70
2019-04-26T08:14:24.250Z,21.60
2019-04-26T08:17:15.131Z,19.62
2019-04-26T08:20:12.930Z,18.42
2019-04-26T08:22:47.150Z,17.73
2019-04-26T08:25:21.045Z,18.57
2019-04-26T08:27:56.585Z,22.02
2019-04-26T08:30:30.801Z,20.37
2019-04-26T08:33:07.799Z,22.25
2019-04-26T08:35:40.121Z,18.35
2019-04-26T08:38:19.134Z,21.85
2019-04-26T08:40:45.115Z,16.95
2019-04-26T08:43:22.676Z,19.52
2019-04-26T08:46:03.159Z,15.00
2019-04-26T08:48:50.004Z,16.87
2019-04-26T08:51:25.210Z,19.92
2019-04-26T08:53:58.327Z,19.75
2019-04-26T08:56:35.067Z,20.35
2019-04-26T08:59:12.478Z,21.10
2019-04-26T09:01:47.714Z,23.83
2019-04-26T09:04:22.828Z,14.60
2019-04-26T09:07:03.947Z,16.40
2019-04-26T09:09:37.907Z,15.50
2019-04-26T09:12:23.042Z,14.15
2019-04-26T09:14:51.191Z,13.83
2019-04-26T09:17:22.146Z,13.72
2019-04-26T09:19:53.086Z,16.07
2019-04-26T09:22:31.690Z,17.73
2019-04-26T09:25:04.256Z,18.30
2019-04-26T09:27:36.788Z,14.60
2019-04-26T09:30:16.762Z,20.65
2019-04-26T09:32:49.307Z,18.37
2019-04-26T09:35:20.344Z,19.77
2019-04-26T09:37:51.249Z,26.73
2019-04-26T09:40:22.842Z,20.12
2019-04-26T09:42:55.508Z,18.30
2019-04-26T09:45:28.169Z,22.75
2019-04-26T09:48:03.381Z,17.92
2019-04-26T09:50:38.912Z,26.23
2019-04-26T09:53:09.886Z,13.65
2019-04-26T09:55:40.818Z,21.55
2019-04-26T09:58:11.724Z,19.95
2019-04-26T10:00:48.598Z,14.80
2019-04-26T10:03:17.077Z,9.90
2019-04-26T10:05:47.999Z,17.35
2019-04-26T10:08:30.826Z,16.05
2019-04-26T10:11:02.023Z,20.48
2019-04-26T10:13:37.276Z,20.48
2019-04-26T10:16:12.882Z,20.90
2019-04-26T10:18:45.422Z,17.73
2019-04-26T10:21:16.434Z,17.73
2019-04-26T10:23:47.332Z,18.37
2019-04-26T10:26:18.291Z,22.93
2019-04-26T10:28:50.688Z,19.10
2019-04-26T10:31:22.951Z,19.70
2019-04-26T10:33:53.942Z,16.32
2019-04-26T10:36:26.287Z,20.88
2019-04-26T10:38:58.384Z,15.88
2019-04-26T10:41:29.653Z,25.17
2019-04-26T10:44:00.566Z,22.02
2019-04-26T10:46:31.939Z,22.40
2019-04-26T10:49:09.721Z,25.05
2019-04-26T10:51:41.839Z,21.10
2019-04-26T10:54:12.810Z,17.10
2019-04-26T10:56:54.948Z,22.30
2019-04-26T10:59:35.350Z,20.68
2019-04-26T11:02:10.278Z,16.42
2019-04-26T11:04:42.771Z,23.20
2019-04-26T11:07:14.090Z,17.30
2019-04-26T11:09:44.998Z,17.67
2019-04-26T11:12:16.501Z,21.55
2019-04-26T11:14:47.712Z,18.17
2019-04-26T11:17:19.460Z,17.57
2019-04-26T11:19:50.365Z,16.17
2019-04-26T11:22:29.080Z,20.15
2019-04-26T11:24:54.990Z,17.57
2019-04-26T11:27:26.075Z,20.52
2019-04-26T11:29:59.291Z,18.50
2019-04-26T11:32:36.761Z,21.62
2019-04-26T11:35:06.539Z,17.37
2019-04-26T11:37:37.468Z,16.90
2019-04-26T11:40:10.216Z,21.25
2019-04-26T11:42:45.256Z,22.62
2019-04-26T11:45:15.909Z,15.30
2019-04-26T11:47:55.985Z,18.23
2019-04-26T11:50:20.077Z,18.40
2019-04-26T11:52:51.041Z,16.12
2019-04-26T11:55:25.308Z,19.42
2019-04-26T11:57:54.574Z,15.88
2019-04-26T12:00:36.286Z,20.20
2019-04-26T12:03:08.153Z,14.05
2019-04-26T12:05:43.413Z,17.05
2019-04-26T12:08:15.988Z,19.40
2019-04-26T12:10:46.888Z,19.45
2019-04-26T12:13:21.271Z,19.00
2019-04-26T12:15:50.431Z,20.37
2019-04-26T12:18:21.428Z,20.45
2019-04-26T12:20:52.439Z,23.05
2019-04-26T12:23:23.377Z,17.82
2019-04-26T12:25:54.281Z,20.10
2019-04-26T12:28:25.283Z,17.90
2019-04-26T12:30:58.486Z,21.17
2019-04-26T12:33:30.467Z,21.17
2019-04-26T12:36:01.365Z,20.90
2019-04-26T12:38:32.299Z,21.00
2019-04-26T12:41:03.203Z,15.45
2019-04-26T12:43:34.320Z,22.85
2019-04-26T12:46:09.809Z,21.48
2019-04-26T12:48:40.777Z,17.73
2019-04-26T12:51:13.275Z,21.10
2019-04-26T12:53:44.476Z,17.12
2019-04-26T12:56:15.377Z,21.33
2019-04-26T12:58:50.075Z,18.23
2019-04-26T13:01:19.202Z,18.48
2019-04-26T13:04:02.668Z,15.03
2019-04-26T13:06:36.168Z,22.65
2019-04-26T13:09:10.010Z,18.85
2019-04-26T13:11:48.799Z,18.80
2019-04-26T13:14:33.073Z,17.02
2019-04-26T13:17:05.621Z,16.95
2019-04-26T13:19:37.447Z,20.48
2019-04-26T13:22:12.175Z,18.67
2019-04-26T13:24:41.033Z,20.72
2019-04-26T13:27:12.325Z,17.50
2019-04-26T13:29:43.373Z,25.80
2019-04-26T13:32:14.344Z,26.23
2019-04-26T13:34:45.535Z,27.67
2019-04-26T13:37:16.520Z,24.15
2019-04-26T13:39:47.447Z,23.67
2019-04-26T13:42:18.714Z,18.15
2019-04-26T13:44:57.493Z,22.27
2019-04-26T13:47:30.050Z,20.43
2019-04-26T13:50:12.570Z,21.23
2019-04-26T13:52:43.472Z,21.52
2019-04-26T13:55:14.402Z,19.62
2019-04-26T13:57:46.152Z,26.73
2019-04-26T14:00:18.963Z,26.23
2019-04-26T14:02:49.872Z,21.48
2019-04-26T14:05:21.690Z,20.43
2019-04-26T14:07:52.587Z,20.43
2019-04-26T14:10:23.632Z,24.40
2019-04-26T14:12:54.548Z,22.32
2019-04-26T14:15:25.492Z,23.32
2019-04-26T14:17:56.543Z,24.45
2019-04-26T14:20:30.097Z,21.48
2019-04-26T14:23:02.717Z,21.52
2019-04-26T14:25:47.227Z,24.98
2019-04-26T14:28:20.325Z,20.15
2019-04-26T14:30:50.843Z,20.08
2019-04-26T14:33:21.750Z,21.57
2019-04-26T14:35:53.512Z,16.25
2019-04-26T14:38:28.115Z,17.25
2019-04-26T14:41:04.166Z,20.77
2019-04-26T14:43:40.713Z,15.10
2019-04-26T14:46:02.432Z,16.02
2019-04-26T14:48:36.258Z,21.70
2019-04-26T14:51:08.349Z,17.10
2019-04-26T14:53:39.473Z,21.95
2019-04-26T14:56:10.457Z,17.98
2019-04-26T14:58:42.313Z,16.20
2019-04-26T15:01:32.316Z,19.87
2019-04-26T15:04:07.408Z,16.45
2019-04-26T15:06:42.398Z,15.15
2019-04-26T15:09:19.846Z,12.98
2019-04-26T15:11:56.929Z,17.90
2019-04-26T15:14:20.630Z,19.32
2019-04-26T15:16:51.363Z,16.80
2019-04-26T15:19:22.600Z,17.27
2019-04-26T15:21:55.402Z,18.37
2019-04-26T15:24:26.306Z,21.30
2019-04-26T15:26:58.168Z,18.27
2019-04-26T15:29:29.920Z,16.37
2019-04-26T15:32:00.847Z,19.27
2019-04-26T15:34:33.364Z,20.45
2019-04-26T15:37:05.235Z,20.55
2019-04-26T15:39:37.780Z,19.32
2019-04-26T15:42:25.217Z,15.30
2019-04-26T15:44:57.439Z,18.02
2019-04-26T15:47:36.808Z,15.08
2019-04-26T15:50:10.112Z,17.48
2019-04-26T15:52:43.885Z,15.88
2019-04-26T15:55:14.900Z,15.75
2019-04-26T15:57:45.840Z,17.62
2019-04-26T16:00:16.827Z,15.55
2019-04-26T16:02:47.768Z,18.35
2019-04-26T16:05:18.672Z,16.48
2019-04-26T16:07:50.418Z,15.20
2019-04-26T16:10:25.594Z,22.87
2019-04-26T16:13:01.258Z,12.50
2019-04-26T16:15:29.717Z,18.87
2019-04-26T16:18:03.855Z,16.10
2019-04-26T16:20:37.701Z,18.05
2019-04-26T16:23:07.454Z,18.25
2019-04-26T16:25:39.337Z,18.75
2019-04-26T16:28:30.689Z,18.35
2019-04-26T16:31:11.066Z,18.30
2019-04-26T16:33:43.122Z,18.92
2019-04-26T16:36:15.011Z,13.90
2019-04-26T16:38:48.578Z,19.12
2019-04-26T16:41:21.847Z,15.70
2019-04-26T16:43:53.575Z,12.20
2019-04-26T16:46:25.011Z,16.27
2019-04-26T16:49:02.304Z,16.48
2019-04-26T16:51:28.554Z,17.25
2019-04-26T16:54:08.724Z,16.30
2019-04-26T16:56:36.014Z,17.87
2019-04-26T16:59:06.494Z,14.45
2019-04-26T17:01:38.135Z,14.87
2019-04-26T17:04:11.246Z,18.02
2019-04-26T17:06:44.736Z,16.48
2019-04-26T17:09:17.368Z,20.82
2019-04-26T17:11:48.257Z,17.48
2019-04-26T17:14:19.185Z,17.27
2019-04-26T17:16:50.082Z,16.10
2019-04-26T17:19:22.644Z,21.17
2019-04-26T17:22:03.699Z,17.60
2019-04-26T17:24:38.148Z,28.35
2019-04-26T17:27:12.844Z,21.80
2019-04-26T17:29:43.166Z,21.25
2019-04-26T17:32:17.334Z,21.23
2019-04-26T17:34:46.777Z,19.48
2019-04-26T17:37:21.949Z,21.95
2019-04-26T17:39:55.397Z,22.20
2019-04-26T17:42:29.781Z,21.97
2019-04-26T17:45:03.894Z,20.95
2019-04-26T17:47:34.687Z,21.42
2019-04-26T17:50:06.104Z,25.00
2019-04-26T17:52:37.633Z,25.92
2019-04-26T17:55:11.938Z,21.55
2019-04-26T17:57:48.448Z,17.85
2019-04-26T18:00:21.072Z,25.77
2019-04-26T18:02:50.916Z,23.80
2019-04-26T18:05:24.386Z,27.40
2019-04-26T18:07:58.422Z,28.00
2019-04-26T18:10:28.279Z,24.90
2019-04-26T18:13:00.456Z,18.50
2019-04-26T18:15:33.311Z,23.87
2019-04-26T18:18:23.294Z,29.20
2019-04-26T18:21:03.281Z,29.95
2019-04-26T18:23:34.546Z,27.15
2019-04-26T18:26:06.520Z,27.48
2019-04-26T18:28:37.419Z,26.17
2019-04-26T18:31:10.435Z,29.65
2019-04-26T18:33:42.606Z,27.80
2019-04-26T18:36:13.634Z,25.92
2019-04-26T18:38:48.593Z,25.62
2019-04-26T18:41:23.168Z,30.30
2019-04-26T18:43:54.034Z,25.75
2019-04-26T18:46:31.732Z,24.67
2019-04-26T18:49:01.419Z,27.93
2019-04-26T18:51:33.423Z,29.40
2019-04-26T18:54:09.316Z,25.23
2019-04-26T18:56:41.315Z,24.57
2019-04-26T18:59:15.294Z,28.20
2019-04-26T19:01:45.174Z,31.62
2019-04-26T19:04:16.147Z,25.27
2019-04-26T19:06:47.096Z,26.42
2019-04-26T19:09:21.256Z,25.97
2019-04-26T19:11:55.954Z,27.73
2019-04-26T19:14:27.591Z,32.80
2019-04-26T19:17:01.908Z,28.90
2019-04-26T19:19:34.647Z,39.38
2019-04-26T19:22:09.458Z,44.85
2019-04-26T19:24:39.577Z,48.05
2019-04-26T19:27:12.524Z,40.38
2019-04-26T19:29:43.642Z,43.20
2019-04-26T19:32:14.836Z,43.28
2019-04-26T19:34:45.788Z,41.70
2019-04-26T19:37:16.957Z,38.02
2019-04-26T19:39:51.089Z,37.03
2019-04-26T19:42:30.904Z,36.80
2019-04-26T19:45:13.955Z,51.25
2019-04-26T19:47:45.779Z,34.73
2019-04-26T19:50:26.313Z,41.70
2019-04-26T19:53:05.014Z,36.80
2019-04-26T19:55:37.563Z,36.88
2019-04-26T19:58:16.167Z,33.92
2019-04-26T20:00:46.767Z,37.42
2019-04-26T20:03:16.957Z,35.78
2019-04-26T20:05:48.114Z,54.60
2019-04-26T20:08:19.125Z,55.83
2019-04-26T20:10:50.034Z,52.88
2019-04-26T20:13:22.150Z,54.93
2019-04-26T20:15:57.480Z,60.00
2019-04-26T20:18:25.918Z,52.83
2019-04-26T20:20:56.821Z,58.28
2019-04-26T20:23:27.810Z,54.27
2019-04-26T20:26:02.354Z,55.83
2019-04-26T20:28:34.287Z,46.60
2019-04-26T20:31:09.633Z,54.20
2019-04-26T20:33:42.428Z,55.52
2019-04-26T20:36:13.559Z,45.85
2019-04-26T20:38:47.421Z,49.58
2019-04-26T20:41:17.246Z,49.60
2019-04-26T20:44:03.102Z,44.03
2019-04-26T20:46:25.106Z,49.50
2019-04-26T20:48:56.356Z,40.30
2019-04-26T20:51:27.470Z,49.90
2019-04-26T20:53:58.507Z,61.18
2019-04-26T20:56:29.471Z,57.80
2019-04-26T20:59:01.548Z,86.12
2019-04-26T21:01:32.641Z,76.50
2019-04-26T21:04:03.773Z,68.10
2019-04-26T21:06:36.956Z,52.73
2019-04-26T21:09:09.295Z,55.63
2019-04-26T21:11:41.231Z,53.63
2019-04-26T21:14:12.448Z,53.87
2019-04-26T21:16:49.281Z,50.58
2019-04-26T21:19:18.985Z,45.12
2019-04-26T21:21:50.000Z,55.60
2019-04-26T21:24:23.596Z,50.78
2019-04-26T21:26:59.915Z,51.58
2019-04-26T21:29:43.496Z,52.20
2019-04-26T21:32:24.567Z,61.20
2019-04-26T21:34:56.752Z,58.45
2019-04-26T21:37:29.313Z,65.87
2019-04-26T21:40:22.646Z,73.12
2019-04-26T21:42:49.445Z,75.50
2019-04-26T21:45:21.525Z,75.62
2019-04-26T21:47:54.283Z,68.02
2019-04-26T21:50:25.460Z,65.50
2019-04-26T21:52:58.572Z,62.43
2019-04-26T21:55:35.346Z,52.95
2019-04-26T21:58:02.750Z,60.10
2019-04-26T22:00:49.169Z,47.78
2019-04-26T22:03:20.541Z,42.15
2019-04-26T22:05:51.537Z,41.28
2019-04-26T22:08:24.834Z,42.90
2019-04-26T22:10:56.896Z,40.48
2019-04-26T22:13:33.301Z,39.53
2019-04-26T22:16:34.446Z,40.95
2019-04-26T22:19:14.624Z,33.73
2019-04-26T22:21:47.386Z,38.38
2019-04-26T22:24:29.101Z,36.77
2019-04-26T22:27:00.134Z,36.33
2019-04-26T22:29:31.063Z,39.42
2019-04-26T22:32:03.684Z,40.17
2019-04-26T22:34:37.299Z,40.10
2019-04-26T22:37:11.732Z,38.92
2019-04-26T22:39:41.260Z,37.25
2019-04-26T22:42:13.808Z,34.98
2019-04-26T22:44:49.452Z,44.13
2019-04-26T22:47:23.930Z,41.50
2019-04-26T22:49:54.643Z,38.95
2019-04-26T22:52:25.633Z,35.68
2019-04-26T22:54:56.612Z,38.63
2019-04-26T22:57:28.009Z,41.50
2019-04-26T22:59:58.902Z,39.25
2019-04-26T23:02:30.372Z,41.55
2019-04-26T23:05:02.102Z,39.40
2019-04-26T23:07:33.979Z,43.73
2019-04-26T23:10:07.219Z,35.50
2019-04-26T23:12:45.547Z,39.10
2019-04-26T23:15:34.585Z,33.38
2019-04-26T23:18:08.363Z,36.48
2019-04-26T23:20:42.663Z,36.05
2019-04-26T23:23:14.331Z,37.00
2019-04-26T23:25:45.234Z,34.50
2019-04-26T23:28:16.171Z,34.18
2019-04-26T23:30:47.145Z,35.55
2019-04-26T23:33:18.120Z,32.73
2019-04-26T23:35:49.019Z,33.98
2019-04-26T23:38:19.956Z,32.20
2019-04-26T23:40:50.867Z,32.50
2019-04-26T23:43:25.402Z,31.87
2019-04-26T23:45:54.471Z,31.52
2019-04-26T23:48:26.248Z,32.20
2019-04-26T23:50:59.892Z,33.60
2019-04-26T23:53:29.762Z,32.65
2019-04-26T23:56:00.668Z,31.77
2019-04-26T23:58:32.451Z,35.65
